Time;durP1;ratioP1;P1;durP2;ratioP2;P2;SDS_P1;SDS_P2;PMS_P1;PMS_P2;Temp;Humidity;BMP_temperature;BMP_pressure;BME280_temperature;BME280_humidity;BME280_pressure;Samples;Min_cycle;Max_cycle;Signal;HPM_P1;HPM_P2
2023/07/07 00:00:18;;;;;;;;;;;;;;;;;;5096875;28;19956;-73
2023/07/07 00:02:44;;;;;;;;;;;;;;;;;;5097501;28;19955;-72
2023/07/07 00:05:10;;;;;;;;;;;;;;;;;;5096938;28;19977;-73
2023/07/07 00:07:36;;;;;;;;;;;;;;;;;;5096790;28;20330;-73
2023/07/07 00:10:01;;;;;;;;;;;;;;;;;;5097837;28;20391;-73
2023/07/07 00:12:30;;;;;;;;;;;;;;;;;;5096696;28;19989;-72
2023/07/07 00:14:55;;;;;;;;;;;;;;;;;;5097281;28;19958;-72
2023/07/07 00:17:21;;;;;;;;;;;;;;;;;;5096883;28;19955;-73
2023/07/07 00:19:47;;;;;;;;;;;;;;;;;;5096570;28;20003;-74
2023/07/07 00:22:13;;;;;;;;;;;;;;;;;;5096786;28;19962;-73
2023/07/07 00:24:39;;;;;;;;;;;;;;;;;;5096552;28;19965;-73
2023/07/07 00:27:05;;;;;;;;;;;;;;;;;;5096470;28;19961;-73
2023/07/07 00:29:31;;;;;;;;;;;;;;;;;;5096669;28;20004;-73
2023/07/07 00:31:57;;;;;;;;;;;;;;;;;;5096350;28;20404;-72
2023/07/07 00:34:23;;;;;;;;;;;;;;;;;;5095901;28;19955;-73
2023/07/07 00:36:48;;;;;;;;;;;;;;;;;;5096221;28;19958;-73
2023/07/07 00:39:14;;;;;;;;;;;;;;;;;;5096452;28;19961;-72
2023/07/07 00:41:40;;;;;;;;;;;;;;;;;;5096153;28;20504;-73
2023/07/07 00:44:06;;;;;;;;;;;;;;;;;;5096099;28;19955;-72
2023/07/07 00:46:32;;;;;;;;;;;;;;;;;;5096605;28;20432;-73
2023/07/07 00:48:58;;;;;;;;;;;;;;;;;;5096012;28;20401;-73
2023/07/07 00:51:24;;;;;;;;;;;;;;;;;;5096070;28;19961;-74
2023/07/07 00:53:50;;;;;;;;;;;;;;;;;;5095805;28;20335;-73
2023/07/07 00:56:16;;;;;;;;;;;;;;;;;;5096155;28;19999;-72
2023/07/07 00:58:41;;;;;;;;;;;;;;;;;;5096077;28;20402;-73
2023/07/07 01:01:12;;;;;;;;;;;;;;;;;;5096035;28;19954;-73
2023/07/07 01:03:38;;;;;;;;;;;;;;;;;;5095753;28;19958;-72
2023/07/07 01:06:06;;;;;;;;;;;;;;;;;;5095603;28;19979;-72
2023/07/07 01:08:32;;;;;;;;;;;;;;;;;;5096458;28;20000;-73
2023/07/07 01:10:58;;;;;;;;;;;;;;;;;;5095554;28;19957;-73
2023/07/07 01:13:24;;;;;;;;;;;;;;;;;;5095494;28;20364;-73
2023/07/07 01:15:49;;;;;;;;;;;;;;;;;;5096018;28;19954;-73
2023/07/07 01:18:15;;;;;;;;;;;;;;;;;;5095471;28;19953;-73
2023/07/07 01:20:41;;;;;;;;;;;;;;;;;;5095437;28;20384;-73
2023/07/07 01:23:07;;;;;;;;;;;;;;;;;;5095330;28;19954;-73
2023/07/07 01:25:36;;;;;;;;;;;;;;;;;;5095586;28;19977;-73
2023/07/07 01:28:02;;;;;;;;;;;;;;;;;;5095302;28;19970;-72
2023/07/07 01:30:29;;;;;;;;;;;;;;;;;;5095200;28;19955;-73
2023/07/07 01:32:55;;;;;;;;;;;;;;;;;;5095379;28;19982;-73
2023/07/07 01:35:20;;;;;;;;;;;;;;;;;;5095091;28;19953;-74
2023/07/07 01:37:46;;;;;;;;;;;;;;;;;;5095033;28;19963;-74
2023/07/07 01:40:12;;;;;;;;;;;;;;;;;;5095256;28;19979;-73
2023/07/07 01:42:38;;;;;;;;;;;;;;;;;;5094981;28;19962;-73
2023/07/07 01:45:04;;;;;;;;;;;;;;;;;;5095156;28;19977;-74
2023/07/07 01:47:30;;;;;;;;;;;;;;;;;;5094067;28;19955;-73
2023/07/07 01:49:56;;;;;;;;;;;;;;;;;;5094808;28;19954;-73
2023/07/07 01:52:22;;;;;;;;;;;;;;;;;;5094699;28;20006;-74
2023/07/07 01:54:47;;;;;;;;;;;;;;;;;;5094720;28;19962;-73
2023/07/07 01:57:13;;;;;;;;;;;;;;;;;;5094699;28;19962;-73
2023/07/07 01:59:39;;;;;;;;;;;;;;;;;;5094642;28;20422;-73
2023/07/07 02:02:05;;;;;;;;;;;;;;;;;;5094612;28;19961;-73
2023/07/07 02:04:31;;;;;;;;;;;;;;;;;;5093252;28;19975;-73
2023/07/07 02:06:57;;;;;;;;;;;;;;;;;;5094538;28;19954;-73
2023/07/07 02:09:23;;;;;;;;;;;;;;;;;;5094979;28;19977;-72
2023/07/07 02:11:49;;;;;;;;;;;;;;;;;;5094961;28;19965;-72
2023/07/07 02:14:15;;;;;;;;;;;;;;;;;;5092601;28;19993;-73
2023/07/07 02:16:41;;;;;;;;;;;;;;;;;;5094961;28;20046;-74
2023/07/07 02:19:06;;;;;;;;;;;;;;;;;;5094616;28;19953;-74
2023/07/07 02:21:32;;;;;;;;;;;;;;;;;;5094265;28;19954;-72
2023/07/07 02:23:58;;;;;;;;;;;;;;;;;;5094278;28;20102;-72
2023/07/07 02:26:24;;;;;;;;;;;;;;;;;;5094222;28;20409;-73
2023/07/07 02:28:50;;;;;;;;;;;;;;;;;;5094114;28;19992;-73
2023/07/07 02:31:16;;;;;;;;;;;;;;;;;;5094376;28;19962;-73
2023/07/07 02:33:42;;;;;;;;;;;;;;;;;;5093973;28;19980;-73
2023/07/07 02:36:08;;;;;;;;;;;;;;;;;;5094311;28;19960;-73
2023/07/07 02:38:34;;;;;;;;;;;;;;;;;;5093959;28;19956;-73
2023/07/07 02:41:00;;;;;;;;;;;;;;;;;;5094036;28;20454;-73
2023/07/07 02:43:26;;;;;;;;;;;;;;;;;;5093977;28;20000;-73
2023/07/07 02:45:52;;;;;;;;;;;;;;;;;;5094192;28;20044;-72
2023/07/07 02:48:19;;;;;;;;;;;;;;;;;;5093850;28;20041;-73
2023/07/07 02:50:45;;;;;;;;;;;;;;;;;;5094443;28;20004;-73
2023/07/07 02:53:11;;;;;;;;;;;;;;;;;;5093802;28;19974;-73
2023/07/07 02:55:37;;;;;;;;;;;;;;;;;;5093697;28;19954;-72
2023/07/07 02:58:03;;;;;;;;;;;;;;;;;;5093577;28;20058;-73
2023/07/07 03:00:29;;;;;;;;;;;;;;;;;;5093931;28;20003;-74
2023/07/07 03:02:55;;;;;;;;;;;;;;;;;;5093711;28;19954;-72
2023/07/07 03:05:21;;;;;;;;;;;;;;;;;;5093610;28;19993;-73
2023/07/07 03:07:47;;;;;;;;;;;;;;;;;;5093644;28;19959;-72
2023/07/07 03:10:13;;;;;;;;;;;;;;;;;;5094707;28;19961;-74
2023/07/07 03:12:38;;;;;;;;;;;;;;;;;;5093422;28;20002;-73
2023/07/07 03:15:04;;;;;;;;;;;;;;;;;;5093613;28;20422;-72
2023/07/07 03:17:33;;;;;;;;;;;;;;;;;;5093879;28;20354;-73
2023/07/07 03:19:59;;;;;;;;;;;;;;;;;;5093514;28;19958;-72
2023/07/07 03:22:25;;;;;;;;;;;;;;;;;;5093784;28;19962;-72
2023/07/07 03:24:51;;;;;;;;;;;;;;;;;;5093449;28;20001;-73
2023/07/07 03:27:17;;;;;;;;;;;;;;;;;;5093755;28;19954;-72
2023/07/07 03:29:42;;;;;;;;;;;;;;;;;;5093386;28;20303;-72
2023/07/07 03:32:08;;;;;;;;;;;;;;;;;;5093269;28;19966;-72
2023/07/07 03:34:36;;;;;;;;;;;;;;;;;;5093652;28;20427;-71
2023/07/07 03:37:02;;;;;;;;;;;;;;;;;;5093376;28;20301;-73
2023/07/07 03:39:28;;;;;;;;;;;;;;;;;;5093407;28;19962;-72
2023/07/07 03:41:54;;;;;;;;;;;;;;;;;;5093569;28;19958;-72
2023/07/07 03:44:20;;;;;;;;;;;;;;;;;;5093561;28;19954;-73
2023/07/07 03:46:46;;;;;;;;;;;;;;;;;;5093310;28;19986;-73
2023/07/07 03:49:12;;;;;;;;;;;;;;;;;;5091906;28;19965;-74
2023/07/07 03:51:37;;;;;;;;;;;;;;;;;;5093231;28;20001;-73
2023/07/07 03:54:03;;;;;;;;;;;;;;;;;;5093157;28;20033;-73
2023/07/07 03:56:29;;;;;;;;;;;;;;;;;;5093503;28;19961;-73
2023/07/07 03:58:55;;;;;;;;;;;;;;;;;;5093184;28;19955;-73
2023/07/07 04:01:21;;;;;;;;;;;;;;;;;;5093443;28;20021;-73
2023/07/07 04:03:47;;;;;;;;;;;;;;;;;;5093091;28;20026;-73
2023/07/07 04:06:13;;;;;;;;;;;;;;;;;;5093297;28;19970;-74
2023/07/07 04:08:39;;;;;;;;;;;;;;;;;;5093682;28;20003;-73
2023/07/07 04:11:05;;;;;;;;;;;;;;;;;;5094343;28;20342;-74
2023/07/07 04:13:31;;;;;;;;;;;;;;;;;;5096467;28;20366;-73
2023/07/07 04:15:56;;;;;;;;;;;;;;;;;;5096702;28;19954;-74
2023/07/07 04:18:22;;;;;;;;;;;;;;;;;;5097171;28;20396;-74
2023/07/07 04:20:49;;;;;;;;;;;;;;;;;;5096854;28;20036;-73
2023/07/07 04:23:15;;;;;;;;;;;;;;;;;;5096580;28;20043;-72
2023/07/07 04:25:40;;;;;;;;;;;;;;;;;;5097052;28;20383;-73
2023/07/07 04:28:06;;;;;;;;;;;;;;;;;;5096698;28;19959;-75
2023/07/07 04:30:32;;;;;;;;;;;;;;;;;;5096647;28;20339;-73
2023/07/07 04:32:58;;;;;;;;;;;;;;;;;;5096243;28;20024;-73
2023/07/07 04:35:24;;;;;;;;;;;;;;;;;;5096354;28;20320;-73
2023/07/07 04:37:50;;;;;;;;;;;;;;;;;;5096781;28;20315;-72
2023/07/07 04:40:16;;;;;;;;;;;;;;;;;;5096485;28;19954;-73
2023/07/07 04:42:42;;;;;;;;;;;;;;;;;;5096739;28;19954;-73
2023/07/07 04:45:07;;;;;;;;;;;;;;;;;;5096106;28;19997;-73
2023/07/07 04:47:33;;;;;;;;;;;;;;;;;;5096326;28;20001;-73
2023/07/07 04:49:59;;;;;;;;;;;;;;;;;;5095983;28;19958;-73
2023/07/07 04:52:25;;;;;;;;;;;;;;;;;;5094595;28;19978;-73
2023/07/07 04:54:51;;;;;;;;;;;;;;;;;;5095906;28;19961;-74
2023/07/07 04:57:17;;;;;;;;;;;;;;;;;;5096435;28;19961;-74
2023/07/07 04:59:43;;;;;;;;;;;;;;;;;;5095788;28;20004;-73
2023/07/07 05:02:09;;;;;;;;;;;;;;;;;;5096412;28;20416;-74
2023/07/07 05:04:34;;;;;;;;;;;;;;;;;;5095646;28;19971;-73
2023/07/07 05:07:00;;;;;;;;;;;;;;;;;;5095683;28;20323;-74
2023/07/07 05:09:26;;;;;;;;;;;;;;;;;;5096171;28;19961;-73
2023/07/07 05:11:52;;;;;;;;;;;;;;;;;;5095594;28;19962;-74
2023/07/07 05:14:18;;;;;;;;;;;;;;;;;;5095092;28;19989;-74
2023/07/07 05:16:44;;;;;;;;;;;;;;;;;;5095759;28;19954;-73
2023/07/07 05:19:10;;;;;;;;;;;;;;;;;;5095729;28;20052;-73
2023/07/07 05:21:36;;;;;;;;;;;;;;;;;;5095394;28;19954;-74
2023/07/07 05:24:02;;;;;;;;;;;;;;;;;;5095906;28;19955;-74
2023/07/07 05:26:28;;;;;;;;;;;;;;;;;;5095614;28;20365;-73
2023/07/07 05:28:54;;;;;;;;;;;;;;;;;;5095291;28;20019;-74
2023/07/07 05:31:20;;;;;;;;;;;;;;;;;;5095863;28;19989;-74
2023/07/07 05:33:46;;;;;;;;;;;;;;;;;;5095110;28;20017;-73
2023/07/07 05:36:11;;;;;;;;;;;;;;;;;;5095099;28;19958;-73
2023/07/07 05:38:37;;;;;;;;;;;;;;;;;;5095374;28;19954;-73
2023/07/07 05:41:03;;;;;;;;;;;;;;;;;;5095020;28;20018;-74
2023/07/07 05:43:29;;;;;;;;;;;;;;;;;;5095495;28;20407;-73
2023/07/07 05:45:56;;;;;;;;;;;;;;;;;;5095158;28;19954;-73
2023/07/07 05:48:22;;;;;;;;;;;;;;;;;;5095192;28;20412;-73
2023/07/07 05:50:47;;;;;;;;;;;;;;;;;;5094818;28;19954;-74
2023/07/07 05:53:13;;;;;;;;;;;;;;;;;;5095009;28;20022;-74
2023/07/07 05:55:46;;;;;;;;;;;;;;;;;;5093483;28;19962;-74
2023/07/07 05:58:12;;;;;;;;;;;;;;;;;;5095365;28;19954;-74
2023/07/07 06:00:38;;;;;;;;;;;;;;;;;;5094636;28;20297;-74
2023/07/07 06:03:03;;;;;;;;;;;;;;;;;;5094638;28;20035;-73
2023/07/07 06:05:29;;;;;;;;;;;;;;;;;;5094579;28;20348;-73
2023/07/07 06:07:55;;;;;;;;;;;;;;;;;;5094622;28;19960;-74
2023/07/07 06:10:24;;;;;;;;;;;;;;;;;;5095070;28;19953;-73
2023/07/07 06:12:50;;;;;;;;;;;;;;;;;;5094186;28;20081;-71
2023/07/07 06:15:16;;;;;;;;;;;;;;;;;;5094443;28;19989;-71
2023/07/07 06:17:42;;;;;;;;;;;;;;;;;;5094662;28;20385;-71
2023/07/07 06:20:08;;;;;;;;;;;;;;;;;;5094408;28;20003;-71
2023/07/07 06:22:34;;;;;;;;;;;;;;;;;;5094607;28;19954;-71
2023/07/07 06:25:03;;;;;;;;;;;;;;;;;;5094257;28;19953;-71
2023/07/07 06:27:29;;;;;;;;;;;;;;;;;;5094816;28;20057;-70
2023/07/07 06:29:54;;;;;;;;;;;;;;;;;;5094250;28;19954;-69
2023/07/07 06:32:20;;;;;;;;;;;;;;;;;;5093781;28;20004;-72
2023/07/07 06:34:46;;;;;;;;;;;;;;;;;;5094334;28;20041;-70
2023/07/07 06:37:12;;;;;;;;;;;;;;;;;;5094079;28;19951;-71
2023/07/07 06:39:38;;;;;;;;;;;;;;;;;;5094315;28;19954;-72
2023/07/07 06:42:04;;;;;;;;;;;;;;;;;;5094009;28;19961;-72
2023/07/07 06:44:30;;;;;;;;;;;;;;;;;;5094224;28;20326;-71
2023/07/07 06:46:56;;;;;;;;;;;;;;;;;;5094219;28;19958;-71
2023/07/07 06:49:22;;;;;;;;;;;;;;;;;;5093962;28;19953;-68
2023/07/07 06:51:47;;;;;;;;;;;;;;;;;;5093888;28;19954;-69
2023/07/07 06:54:13;;;;;;;;;;;;;;;;;;5094084;28;20065;-68
2023/07/07 06:56:39;;;;;;;;;;;;;;;;;;5093819;28;20346;-68
2023/07/07 06:59:05;;;;;;;;;;;;;;;;;;5093777;28;19954;-68
2023/07/07 07:01:31;;;;;;;;;;;;;;;;;;5094044;28;19953;-69
2023/07/07 07:04:00;;;;;;;;;;;;;;;;;;5093726;28;19967;-68
2023/07/07 07:06:26;;;;;;;;;;;;;;;;;;5094241;28;20445;-69
2023/07/07 07:08:52;;;;;;;;;;;;;;;;;;5093679;28;19953;-68
2023/07/07 07:11:18;;;;;;;;;;;;;;;;;;5094174;28;19952;-69
2023/07/07 07:13:44;;;;;;;;;;;;;;;;;;5093372;28;19989;-68
2023/07/07 07:16:09;;;;;;;;;;;;;;;;;;5093925;28;19956;-69
2023/07/07 07:18:35;;;;;;;;;;;;;;;;;;5093568;28;20042;-68
2023/07/07 07:21:02;;;;;;;;;;;;;;;;;;5093873;28;19953;-68
2023/07/07 07:23:28;;;;;;;;;;;;;;;;;;5092060;28;20461;-70
2023/07/07 07:25:54;;;;;;;;;;;;;;;;;;5094202;28;19950;-67
2023/07/07 07:28:20;;;;;;;;;;;;;;;;;;5093986;28;19956;-69
2023/07/07 07:30:46;;;;;;;;;;;;;;;;;;5093588;28;19953;-69
2023/07/07 07:33:12;;;;;;;;;;;;;;;;;;5094099;28;20007;-70
2023/07/07 07:35:38;;;;;;;;;;;;;;;;;;5093803;28;19952;-67
2023/07/07 07:38:04;;;;;;;;;;;;;;;;;;5093489;28;20001;-68
2023/07/07 07:40:30;;;;;;;;;;;;;;;;;;5093386;28;20091;-69
2023/07/07 07:42:56;;;;;;;;;;;;;;;;;;5094012;28;19959;-66
2023/07/07 07:45:22;;;;;;;;;;;;;;;;;;5095151;28;20352;-67
2023/07/07 07:47:48;;;;;;;;;;;;;;;;;;5097337;28;19995;-70
2023/07/07 07:50:14;;;;;;;;;;;;;;;;;;5097268;28;19954;-67
2023/07/07 07:52:40;;;;;;;;;;;;;;;;;;5097431;28;19974;-68
2023/07/07 07:55:06;;;;;;;;;;;;;;;;;;5096972;28;20411;-65
2023/07/07 07:57:32;;;;;;;;;;;;;;;;;;5096838;28;20041;-65
2023/07/07 07:59:57;;;;;;;;;;;;;;;;;;5095602;28;19957;-68
2023/07/07 08:02:23;;;;;;;;;;;;;;;;;;5096780;28;19952;-67
2023/07/07 08:04:49;;;;;;;;;;;;;;;;;;5095571;28;20043;-66
2023/07/07 08:07:15;;;;;;;;;;;;;;;;;;5095126;28;19959;-67
2023/07/07 08:09:41;;;;;;;;;;;;;;;;;;5096195;28;19954;-67
2023/07/07 08:12:07;;;;;;;;;;;;;;;;;;5095403;28;19953;-67
2023/07/07 08:14:33;;;;;;;;;;;;;;;;;;5095612;28;19958;-66
2023/07/07 08:17:01;;;;;;;;;;;;;;;;;;5095453;28;20445;-67
2023/07/07 08:19:27;;;;;;;;;;;;;;;;;;5096507;28;19952;-66
2023/07/07 08:21:53;;;;;;;;;;;;;;;;;;5097281;28;20319;-65
2023/07/07 08:24:19;;;;;;;;;;;;;;;;;;5096637;28;19957;-68
2023/07/07 08:26:46;;;;;;;;;;;;;;;;;;5097132;28;20045;-66
2023/07/07 08:29:12;;;;;;;;;;;;;;;;;;5096600;28;19952;-66
2023/07/07 08:31:38;;;;;;;;;;;;;;;;;;5097055;28;20463;-70
2023/07/07 08:34:04;;;;;;;;;;;;;;;;;;5096601;28;19979;-69
2023/07/07 08:36:30;;;;;;;;;;;;;;;;;;5096385;28;20469;-69
2023/07/07 08:38:56;;;;;;;;;;;;;;;;;;5096317;28;19959;-67
2023/07/07 08:41:22;;;;;;;;;;;;;;;;;;5096323;28;20001;-70
2023/07/07 08:43:48;;;;;;;;;;;;;;;;;;5096533;28;20023;-66
2023/07/07 08:46:14;;;;;;;;;;;;;;;;;;5096181;28;19961;-67
2023/07/07 08:48:40;;;;;;;;;;;;;;;;;;5096223;28;19953;-66
2023/07/07 08:51:06;;;;;;;;;;;;;;;;;;5096370;28;19956;-68
2023/07/07 08:53:32;;;;;;;;;;;;;;;;;;5094468;28;19977;-69
2023/07/07 08:55:58;;;;;;;;;;;;;;;;;;5095940;28;19961;-70
2023/07/07 08:58:24;;;;;;;;;;;;;;;;;;5095959;28;19961;-69
2023/07/07 09:00:50;;;;;;;;;;;;;;;;;;5096487;28;20314;-69
2023/07/07 09:03:16;;;;;;;;;;;;;;;;;;5095848;28;20406;-70
2023/07/07 09:05:42;;;;;;;;;;;;;;;;;;5095923;28;19978;-70
2023/07/07 09:08:08;;;;;;;;;;;;;;;;;;5095746;28;19961;-69
2023/07/07 09:10:34;;;;;;;;;;;;;;;;;;5096172;28;19953;-70
2023/07/07 09:13:00;;;;;;;;;;;;;;;;;;5095882;28;20478;-67
2023/07/07 09:15:26;;;;;;;;;;;;;;;;;;5095649;28;19955;-69
2023/07/07 09:17:52;;;;;;;;;;;;;;;;;;5095815;28;19955;-67
2023/07/07 09:20:18;;;;;;;;;;;;;;;;;;5095797;28;19961;-67
2023/07/07 09:22:43;;;;;;;;;;;;;;;;;;5095417;28;19974;-67
2023/07/07 09:25:09;;;;;;;;;;;;;;;;;;5095717;28;19965;-69
2023/07/07 09:27:35;;;;;;;;;;;;;;;;;;5095394;28;20412;-68
2023/07/07 09:30:01;;;;;;;;;;;;;;;;;;5095340;28;19994;-69
2023/07/07 09:32:27;;;;;;;;;;;;;;;;;;5095485;28;19972;-70
2023/07/07 09:34:53;;;;;;;;;;;;;;;;;;5095232;28;20037;-68
2023/07/07 09:37:19;;;;;;;;;;;;;;;;;;5095423;28;19955;-69
2023/07/07 09:39:45;;;;;;;;;;;;;;;;;;5095058;28;19976;-69
2023/07/07 09:42:11;;;;;;;;;;;;;;;;;;5095666;28;19955;-70
2023/07/07 09:44:36;;;;;;;;;;;;;;;;;;5095382;28;19953;-72
2023/07/07 09:47:05;;;;;;;;;;;;;;;;;;5095062;28;19954;-68
2023/07/07 09:49:31;;;;;;;;;;;;;;;;;;5094992;28;19991;-69
2023/07/07 09:51:57;;;;;;;;;;;;;;;;;;5095185;28;19953;-71
2023/07/07 09:54:23;;;;;;;;;;;;;;;;;;5094778;28;20333;-68
2023/07/07 09:56:49;;;;;;;;;;;;;;;;;;5094834;28;19998;-70
2023/07/07 09:59:15;;;;;;;;;;;;;;;;;;5095083;28;19952;-69
2023/07/07 10:01:41;;;;;;;;;;;;;;;;;;5095015;28;20357;-70
2023/07/07 10:04:07;;;;;;;;;;;;;;;;;;5095197;28;19962;-69
2023/07/07 10:06:33;;;;;;;;;;;;;;;;;;5094888;28;19962;-69
2023/07/07 10:08:59;;;;;;;;;;;;;;;;;;5093961;28;20315;-70
2023/07/07 10:11:25;;;;;;;;;;;;;;;;;;5095553;28;19963;-70
2023/07/07 10:13:51;;;;;;;;;;;;;;;;;;5092915;28;20007;-68
2023/07/07 10:16:17;;;;;;;;;;;;;;;;;;5094446;28;19958;-68
2023/07/07 10:18:43;;;;;;;;;;;;;;;;;;5094692;28;19952;-67
2023/07/07 10:21:09;;;;;;;;;;;;;;;;;;5094644;28;20001;-68
2023/07/07 10:23:35;;;;;;;;;;;;;;;;;;5094342;28;19967;-69
2023/07/07 10:26:00;;;;;;;;;;;;;;;;;;5094560;28;20000;-69
2023/07/07 10:28:26;;;;;;;;;;;;;;;;;;5094592;28;19958;-70
2023/07/07 10:30:52;;;;;;;;;;;;;;;;;;5094471;28;19954;-70
2023/07/07 10:33:18;;;;;;;;;;;;;;;;;;5094138;28;20103;-69
2023/07/07 10:35:44;;;;;;;;;;;;;;;;;;5094739;28;19955;-69
2023/07/07 10:38:10;;;;;;;;;;;;;;;;;;5094095;28;19955;-69
2023/07/07 10:40:36;;;;;;;;;;;;;;;;;;5094002;28;20420;-68
2023/07/07 10:43:02;;;;;;;;;;;;;;;;;;5094028;28;19961;-67
2023/07/07 10:45:28;;;;;;;;;;;;;;;;;;5094251;28;19954;-69
2023/07/07 10:47:54;;;;;;;;;;;;;;;;;;5094029;28;20366;-68
2023/07/07 10:50:20;;;;;;;;;;;;;;;;;;5094194;28;19958;-69
2023/07/07 10:52:46;;;;;;;;;;;;;;;;;;5093883;28;19974;-69
2023/07/07 10:55:12;;;;;;;;;;;;;;;;;;5094114;28;19977;-69
2023/07/07 10:57:38;;;;;;;;;;;;;;;;;;5093811;28;20049;-68
2023/07/07 11:00:04;;;;;;;;;;;;;;;;;;5094070;28;20366;-69
2023/07/07 11:02:30;;;;;;;;;;;;;;;;;;5093762;28;19965;-68
2023/07/07 11:04:56;;;;;;;;;;;;;;;;;;5093681;28;19968;-69
2023/07/07 11:07:22;;;;;;;;;;;;;;;;;;5093748;28;20002;-69
2023/07/07 11:09:48;;;;;;;;;;;;;;;;;;5094290;28;19963;-69
2023/07/07 11:12:14;;;;;;;;;;;;;;;;;;5093730;28;19954;-70
2023/07/07 11:14:40;;;;;;;;;;;;;;;;;;5094237;28;19961;-70
2023/07/07 11:17:05;;;;;;;;;;;;;;;;;;5093640;28;20092;-68
2023/07/07 11:19:31;;;;;;;;;;;;;;;;;;5096068;28;20438;-69
2023/07/07 11:21:57;;;;;;;;;;;;;;;;;;5097808;28;19954;-68
2023/07/07 11:24:23;;;;;;;;;;;;;;;;;;5098334;28;20340;-69
2023/07/07 11:26:49;;;;;;;;;;;;;;;;;;5097974;28;20045;-68
2023/07/07 11:29:15;;;;;;;;;;;;;;;;;;5097671;28;19999;-69
2023/07/07 11:31:41;;;;;;;;;;;;;;;;;;5097836;28;20376;-71
2023/07/07 11:34:07;;;;;;;;;;;;;;;;;;5097505;28;20017;-69
2023/07/07 11:36:33;;;;;;;;;;;;;;;;;;5097879;28;19953;-69
2023/07/07 11:38:58;;;;;;;;;;;;;;;;;;5097791;28;19975;-69
2023/07/07 11:41:24;;;;;;;;;;;;;;;;;;5097498;28;19962;-69
2023/07/07 11:43:50;;;;;;;;;;;;;;;;;;5097974;28;20297;-70
2023/07/07 11:46:16;;;;;;;;;;;;;;;;;;5097622;28;19968;-68
2023/07/07 11:48:42;;;;;;;;;;;;;;;;;;5097879;28;20056;-69
2023/07/07 11:51:08;;;;;;;;;;;;;;;;;;5097544;28;19951;-70
2023/07/07 11:53:34;;;;;;;;;;;;;;;;;;5097359;28;19985;-68
2023/07/07 11:56:00;;;;;;;;;;;;;;;;;;5097144;28;19958;-70
2023/07/07 11:58:26;;;;;;;;;;;;;;;;;;5097428;28;19961;-70
2023/07/07 12:00:52;;;;;;;;;;;;;;;;;;5097059;28;20370;-71
2023/07/07 12:03:18;;;;;;;;;;;;;;;;;;5097027;28;19985;-68
2023/07/07 12:05:44;;;;;;;;;;;;;;;;;;5097112;28;20448;-67
2023/07/07 12:08:10;;;;;;;;;;;;;;;;;;5096936;28;19964;-70
2023/07/07 12:10:38;;;;;;;;;;;;;;;;;;5097994;28;20350;-67
2023/07/07 12:13:03;;;;;;;;;;;;;;;;;;5096760;28;20458;-70
2023/07/07 12:15:29;;;;;;;;;;;;;;;;;;5097098;28;19956;-68
2023/07/07 12:17:55;;;;;;;;;;;;;;;;;;5097015;28;20041;-69
2023/07/07 12:20:21;;;;;;;;;;;;;;;;;;5096927;28;19954;-68
2023/07/07 12:22:47;;;;;;;;;;;;;;;;;;5096629;28;19961;-70
2023/07/07 12:25:13;;;;;;;;;;;;;;;;;;5096637;28;20004;-67
2023/07/07 12:27:42;;;;;;;;;;;;;;;;;;5096845;28;19958;-71
2023/07/07 12:30:08;;;;;;;;;;;;;;;;;;5096343;28;19960;-69
2023/07/07 12:32:34;;;;;;;;;;;;;;;;;;5096243;28;19957;-72
2023/07/07 12:35:00;;;;;;;;;;;;;;;;;;5096698;28;20456;-67
2023/07/07 12:37:25;;;;;;;;;;;;;;;;;;5096925;28;20045;-69
2023/07/07 12:39:51;;;;;;;;;;;;;;;;;;5096327;28;20318;-68
2023/07/07 12:42:17;;;;;;;;;;;;;;;;;;5096282;28;19959;-69
2023/07/07 12:44:45;;;;;;;;;;;;;;;;;;5096242;28;19954;-67
2023/07/07 12:47:11;;;;;;;;;;;;;;;;;;5096190;28;19954;-71
2023/07/07 12:49:39;;;;;;;;;;;;;;;;;;5096394;28;19961;-70
2023/07/07 12:52:05;;;;;;;;;;;;;;;;;;5096122;28;19954;-69
2023/07/07 12:54:31;;;;;;;;;;;;;;;;;;5095964;28;20022;-71
2023/07/07 12:56:57;;;;;;;;;;;;;;;;;;5096564;28;20320;-68
2023/07/07 12:59:23;;;;;;;;;;;;;;;;;;5095945;28;19953;-69
2023/07/07 13:01:49;;;;;;;;;;;;;;;;;;5095872;28;19954;-68
2023/07/07 13:04:16;;;;;;;;;;;;;;;;;;5096286;28;20014;-71
2023/07/07 13:06:42;;;;;;;;;;;;;;;;;;5095814;28;19962;-68
2023/07/07 13:09:09;;;;;;;;;;;;;;;;;;5096343;28;20287;-70
2023/07/07 13:11:35;;;;;;;;;;;;;;;;;;5096256;28;19958;-68
2023/07/07 13:14:01;;;;;;;;;;;;;;;;;;5095247;28;19989;-68
2023/07/07 13:16:27;;;;;;;;;;;;;;;;;;5095613;28;20361;-70
2023/07/07 13:18:53;;;;;;;;;;;;;;;;;;5095546;28;19960;-69
2023/07/07 13:21:20;;;;;;;;;;;;;;;;;;5095520;28;20060;-69
2023/07/07 13:23:46;;;;;;;;;;;;;;;;;;5095738;28;19964;-70
2023/07/07 13:26:11;;;;;;;;;;;;;;;;;;5094182;28;19957;-67
2023/07/07 13:28:37;;;;;;;;;;;;;;;;;;5095973;28;20387;-68
2023/07/07 13:31:03;;;;;;;;;;;;;;;;;;5095579;28;19954;-70
2023/07/07 13:33:30;;;;;;;;;;;;;;;;;;5095413;28;20512;-70
2023/07/07 13:35:56;;;;;;;;;;;;;;;;;;5095274;28;20045;-69
2023/07/07 13:38:22;;;;;;;;;;;;;;;;;;5095458;28;20503;-70
2023/07/07 13:40:47;;;;;;;;;;;;;;;;;;5095445;28;19966;-71
2023/07/07 13:43:13;;;;;;;;;;;;;;;;;;5094059;28;20438;-68
2023/07/07 13:45:39;;;;;;;;;;;;;;;;;;5095087;28;19958;-68
2023/07/07 13:48:05;;;;;;;;;;;;;;;;;;5095325;28;20360;-70
2023/07/07 13:50:32;;;;;;;;;;;;;;;;;;5094957;28;19952;-68
2023/07/07 13:52:57;;;;;;;;;;;;;;;;;;5095492;28;19993;-72
2023/07/07 13:55:23;;;;;;;;;;;;;;;;;;5094879;28;20451;-68
2023/07/07 13:57:49;;;;;;;;;;;;;;;;;;5094794;28;19964;-67
2023/07/07 14:00:16;;;;;;;;;;;;;;;;;;5095358;28;20371;-68
2023/07/07 14:02:42;;;;;;;;;;;;;;;;;;5095019;28;19960;-68
2023/07/07 14:05:08;;;;;;;;;;;;;;;;;;5094576;28;19969;-71
2023/07/07 14:07:33;;;;;;;;;;;;;;;;;;5094652;28;20024;-71
2023/07/07 14:10:00;;;;;;;;;;;;;;;;;;5095161;28;19964;-71
2023/07/07 14:12:25;;;;;;;;;;;;;;;;;;5094992;28;19992;-68
2023/07/07 14:14:51;;;;;;;;;;;;;;;;;;5094829;28;19953;-69
2023/07/07 14:17:17;;;;;;;;;;;;;;;;;;5094485;28;19960;-67
2023/07/07 14:19:43;;;;;;;;;;;;;;;;;;5094463;28;19958;-68
2023/07/07 14:22:09;;;;;;;;;;;;;;;;;;5094368;28;19955;-67
2023/07/07 14:24:35;;;;;;;;;;;;;;;;;;5094359;28;20000;-70
2023/07/07 14:27:01;;;;;;;;;;;;;;;;;;5094592;28;19953;-71
2023/07/07 14:29:27;;;;;;;;;;;;;;;;;;5094264;28;19956;-69
2023/07/07 14:31:53;;;;;;;;;;;;;;;;;;5094442;28;19954;-68
2023/07/07 14:34:19;;;;;;;;;;;;;;;;;;5094331;28;19976;-71
2023/07/07 14:36:47;;;;;;;;;;;;;;;;;;5094481;28;19952;-70
2023/07/07 14:39:13;;;;;;;;;;;;;;;;;;5092854;28;19958;-70
2023/07/07 14:41:39;;;;;;;;;;;;;;;;;;5094035;28;19962;-70
2023/07/07 14:44:05;;;;;;;;;;;;;;;;;;5094083;28;19983;-69
2023/07/07 14:46:31;;;;;;;;;;;;;;;;;;5094560;28;20346;-70
2023/07/07 14:48:57;;;;;;;;;;;;;;;;;;5094797;28;19961;-69
2023/07/07 14:51:23;;;;;;;;;;;;;;;;;;5093956;28;19953;-67
2023/07/07 14:53:48;;;;;;;;;;;;;;;;;;5094041;28;19997;-68
2023/07/07 14:56:14;;;;;;;;;;;;;;;;;;5093879;28;19961;-71
2023/07/07 14:58:41;;;;;;;;;;;;;;;;;;5093834;28;20427;-70
2023/07/07 15:01:07;;;;;;;;;;;;;;;;;;5093837;28;19990;-69
2023/07/07 15:03:35;;;;;;;;;;;;;;;;;;5094030;28;19962;-69
2023/07/07 15:06:00;;;;;;;;;;;;;;;;;;5093718;28;19976;-71
2023/07/07 15:08:29;;;;;;;;;;;;;;;;;;5093716;28;19954;-68
2023/07/07 15:10:55;;;;;;;;;;;;;;;;;;5094274;28;20008;-70
2023/07/07 15:13:21;;;;;;;;;;;;;;;;;;5093362;28;19994;-68
2023/07/07 15:15:50;;;;;;;;;;;;;;;;;;5093183;28;20310;-69
2023/07/07 15:18:16;;;;;;;;;;;;;;;;;;5093878;28;19989;-71
2023/07/07 15:20:44;;;;;;;;;;;;;;;;;;5093652;28;19961;-67
2023/07/07 15:23:10;;;;;;;;;;;;;;;;;;5093919;28;19961;-68
2023/07/07 15:25:36;;;;;;;;;;;;;;;;;;5093526;28;19954;-71
2023/07/07 15:28:02;;;;;;;;;;;;;;;;;;5094090;28;19954;-69
2023/07/07 15:30:28;;;;;;;;;;;;;;;;;;5093819;28;19961;-71
2023/07/07 15:32:54;;;;;;;;;;;;;;;;;;5093695;28;19974;-66
2023/07/07 15:35:20;;;;;;;;;;;;;;;;;;5093812;28;20415;-70
2023/07/07 15:37:45;;;;;;;;;;;;;;;;;;5094041;28;19954;-68
2023/07/07 15:40:11;;;;;;;;;;;;;;;;;;5093694;28;19964;-69
2023/07/07 15:42:37;;;;;;;;;;;;;;;;;;5093988;28;19955;-69
2023/07/07 15:45:03;;;;;;;;;;;;;;;;;;5093640;28;19985;-68
2023/07/07 15:47:29;;;;;;;;;;;;;;;;;;5093594;28;19959;-68
2023/07/07 15:49:55;;;;;;;;;;;;;;;;;;5093645;28;19964;-67
2023/07/07 15:52:21;;;;;;;;;;;;;;;;;;5093317;28;20467;-67
2023/07/07 15:54:47;;;;;;;;;;;;;;;;;;5093505;28;19981;-71
2023/07/07 15:57:12;;;;;;;;;;;;;;;;;;5094119;28;20327;-70
2023/07/07 15:59:38;;;;;;;;;;;;;;;;;;5093261;28;19961;-69
2023/07/07 16:02:04;;;;;;;;;;;;;;;;;;5093174;28;20010;-67
2023/07/07 16:04:30;;;;;;;;;;;;;;;;;;5093607;28;19976;-72
2023/07/07 16:06:56;;;;;;;;;;;;;;;;;;5095547;28;19963;-70
2023/07/07 16:09:25;;;;;;;;;;;;;;;;;;5096907;28;20414;-71
2023/07/07 16:11:51;;;;;;;;;;;;;;;;;;5097691;28;19999;-69
2023/07/07 16:14:17;;;;;;;;;;;;;;;;;;5096365;28;20470;-67
2023/07/07 16:16:45;;;;;;;;;;;;;;;;;;5097302;28;19953;-70
2023/07/07 16:19:11;;;;;;;;;;;;;;;;;;5096770;28;20037;-70
2023/07/07 16:21:36;;;;;;;;;;;;;;;;;;5096987;28;19989;-70
2023/07/07 16:24:02;;;;;;;;;;;;;;;;;;5096657;28;20008;-70
2023/07/07 16:26:28;;;;;;;;;;;;;;;;;;5096634;28;20005;-69
2023/07/07 16:28:54;;;;;;;;;;;;;;;;;;5096847;28;19953;-69
2023/07/07 16:31:20;;;;;;;;;;;;;;;;;;5096483;28;19964;-68
2023/07/07 16:33:46;;;;;;;;;;;;;;;;;;5096396;28;19979;-70
2023/07/07 16:36:12;;;;;;;;;;;;;;;;;;5096442;28;19954;-69